sensor_id;sensor_type;location;lat;lon;timestamp;pressure;altitude;pressure_sealevel;temperature;humidity
11223;BME280;5668;52.012;8.724;2022-11-02T00:01:23;100274.25;;;14.40;68.48
11223;BME280;5668;52.012;8.724;2022-11-02T00:03:54;100269.00;;;14.40;68.84
11223;BME280;5668;52.012;8.724;2022-11-02T00:06:23;100265.31;;;14.42;68.79
11223;BME280;5668;52.012;8.724;2022-11-02T00:08:52;100263.03;;;14.38;68.97
11223;BME280;5668;52.012;8.724;2022-11-02T00:11:22;100263.78;;;14.40;68.82
11223;BME280;5668;52.012;8.724;2022-11-02T00:13:51;100261.66;;;14.33;68.91
11223;BME280;5668;52.012;8.724;2022-11-02T00:16:21;100265.00;;;14.36;69.12
11223;BME280;5668;52.012;8.724;2022-11-02T00:18:54;100269.97;;;14.39;68.54
11223;BME280;5668;52.012;8.724;2022-11-02T00:21:26;100263.66;;;14.41;68.68
11223;BME280;5668;52.012;8.724;2022-11-02T00:23:56;100258.56;;;14.40;68.77
11223;BME280;5668;52.012;8.724;2022-11-02T00:26:27;100255.31;;;14.36;69.14
11223;BME280;5668;52.012;8.724;2022-11-02T00:28:58;100239.63;;;14.36;68.88
11223;BME280;5668;52.012;8.724;2022-11-02T00:31:27;100239.63;;;14.36;69.19
11223;BME280;5668;52.012;8.724;2022-11-02T00:33:57;100231.78;;;14.36;68.89
11223;BME280;5668;52.012;8.724;2022-11-02T00:36:24;100231.13;;;14.34;68.83
11223;BME280;5668;52.012;8.724;2022-11-02T00:38:52;100233.38;;;14.39;68.79
11223;BME280;5668;52.012;8.724;2022-11-02T00:41:20;100236.22;;;14.36;69.32
11223;BME280;5668;52.012;8.724;2022-11-02T00:43:47;100234.56;;;14.34;69.68
11223;BME280;5668;52.012;8.724;2022-11-02T00:46:15;100222.16;;;14.37;69.46
11223;BME280;5668;52.012;8.724;2022-11-02T00:48:42;100224.56;;;14.40;69.45
11223;BME280;5668;52.012;8.724;2022-11-02T00:51:10;100231.16;;;14.44;69.00
11223;BME280;5668;52.012;8.724;2022-11-02T00:53:37;100228.84;;;14.41;69.36
11223;BME280;5668;52.012;8.724;2022-11-02T00:56:05;100235.25;;;14.37;69.44
11223;BME280;5668;52.012;8.724;2022-11-02T00:58:32;100236.06;;;14.37;69.86
11223;BME280;5668;52.012;8.724;2022-11-02T01:01:03;100226.44;;;14.38;69.72
11223;BME280;5668;52.012;8.724;2022-11-02T01:03:31;100222.06;;;14.38;69.87
11223;BME280;5668;52.012;8.724;2022-11-02T01:05:58;100215.97;;;14.38;70.05
11223;BME280;5668;52.012;8.724;2022-11-02T01:08:26;100212.44;;;14.39;70.31
11223;BME280;5668;52.012;8.724;2022-11-02T01:10:53;100201.25;;;14.37;70.33
11223;BME280;5668;52.012;8.724;2022-11-02T01:13:21;100205.81;;;14.34;70.55
11223;BME280;5668;52.012;8.724;2022-11-02T01:15:48;100200.28;;;14.38;70.31
11223;BME280;5668;52.012;8.724;2022-11-02T01:18:15;100210.75;;;14.38;70.42
11223;BME280;5668;52.012;8.724;2022-11-02T01:20:42;100205.53;;;14.38;70.34
11223;BME280;5668;52.012;8.724;2022-11-02T01:23:09;100201.25;;;14.37;70.59
11223;BME280;5668;52.012;8.724;2022-11-02T01:25:41;100199.63;;;14.36;71.11
11223;BME280;5668;52.012;8.724;2022-11-02T01:28:10;100196.75;;;14.39;70.99
11223;BME280;5668;52.012;8.724;2022-11-02T01:30:37;100199.63;;;14.36;71.42
11223;BME280;5668;52.012;8.724;2022-11-02T01:33:05;100191.78;;;14.36;71.78
11223;BME280;5668;52.012;8.724;2022-11-02T01:35:32;100192.59;;;14.36;71.62
11223;BME280;5668;52.012;8.724;2022-11-02T01:37:59;100191.78;;;14.36;72.53
11223;BME280;5668;52.012;8.724;2022-11-02T01:40:38;100198.63;;;14.37;72.79
11223;BME280;5668;52.012;8.724;2022-11-02T01:43:19;100193.81;;;14.32;72.92
11223;BME280;5668;52.012;8.724;2022-11-02T01:45:46;100182.28;;;14.34;73.66
11223;BME280;5668;52.012;8.724;2022-11-02T01:48:14;100189.28;;;14.34;73.95
11223;BME280;5668;52.012;8.724;2022-11-02T01:50:42;100190.94;;;14.35;73.88
11223;BME280;5668;52.012;8.724;2022-11-02T01:53:09;100192.34;;;14.39;74.09
11223;BME280;5668;52.012;8.724;2022-11-02T01:55:37;100189.84;;;14.38;74.40
11223;BME280;5668;52.012;8.724;2022-11-02T01:58:08;100195.66;;;14.41;75.14
11223;BME280;5668;52.012;8.724;2022-11-02T02:00:36;100198.63;;;14.37;76.05
11223;BME280;5668;52.012;8.724;2022-11-02T02:03:07;100183.69;;;14.39;76.82
11223;BME280;5668;52.012;8.724;2022-11-02T02:05:39;100187.63;;;14.33;77.99
11223;BME280;5668;52.012;8.724;2022-11-02T02:08:07;100190.94;;;14.35;77.95
11223;BME280;5668;52.012;8.724;2022-11-02T02:10:35;100186.25;;;14.29;78.22
11223;BME280;5668;52.012;8.724;2022-11-02T02:13:05;100180.47;;;14.25;78.30
11223;BME280;5668;52.012;8.724;2022-11-02T02:15:38;100180.19;;;14.28;78.50
11223;BME280;5668;52.012;8.724;2022-11-02T02:18:11;100185.41;;;14.28;78.92
11223;BME280;5668;52.012;8.724;2022-11-02T02:20:56;100185.41;;;14.28;78.58
11223;BME280;5668;52.012;8.724;2022-11-02T02:23:57;100181.84;;;14.29;78.88
11223;BME280;5668;52.012;8.724;2022-11-02T02:26:58;100194.50;;;14.24;79.24
11223;BME280;5668;52.012;8.724;2022-11-02T02:29:32;100182.94;;;14.27;79.28
11223;BME280;5668;52.012;8.724;2022-11-02T02:32:08;100170.00;;;14.25;80.07
11223;BME280;5668;52.012;8.724;2022-11-02T02:34:40;100165.47;;;14.27;80.59
11223;BME280;5668;52.012;8.724;2022-11-02T02:37:16;100154.75;;;14.30;80.80
11223;BME280;5668;52.012;8.724;2022-11-02T02:39:49;100150.75;;;14.26;81.20
11223;BME280;5668;52.012;8.724;2022-11-02T02:42:20;100151.72;;;14.25;81.46
11223;BME280;5668;52.012;8.724;2022-11-02T02:44:58;100158.53;;;14.57;79.43
11223;BME280;5668;52.012;8.724;2022-11-02T02:47:29;100163.19;;;14.44;80.29
11223;BME280;5668;52.012;8.724;2022-11-02T02:50:04;100157.53;;;14.39;80.39
11223;BME280;5668;52.012;8.724;2022-11-02T02:52:35;100160.66;;;14.32;80.54
11223;BME280;5668;52.012;8.724;2022-11-02T02:55:05;100155.69;;;14.29;80.06
11223;BME280;5668;52.012;8.724;2022-11-02T02:57:34;100164.66;;;14.27;79.73
11223;BME280;5668;52.012;8.724;2022-11-02T03:00:04;100160.66;;;14.32;79.37
11223;BME280;5668;52.012;8.724;2022-11-02T03:02:37;100169.47;;;14.31;79.64
11223;BME280;5668;52.012;8.724;2022-11-02T03:05:21;100158.75;;;14.34;78.82
11223;BME280;5668;52.012;8.724;2022-11-02T03:07:48;100159.00;;;14.31;79.33
11223;BME280;5668;52.012;8.724;2022-11-02T03:10:20;100164.78;;;14.25;78.86
11223;BME280;5668;52.012;8.724;2022-11-02T03:12:53;100164.06;;;14.23;79.03
11223;BME280;5668;52.012;8.724;2022-11-02T03:15:29;100153.91;;;14.30;78.80
11223;BME280;5668;52.012;8.724;2022-11-02T03:18:05;100165.31;;;14.29;78.79
11223;BME280;5668;52.012;8.724;2022-11-02T03:20:41;100168.63;;;14.31;78.73
11223;BME280;5668;52.012;8.724;2022-11-02T03:23:14;100156.25;;;14.33;78.59
11223;BME280;5668;52.012;8.724;2022-11-02T03:25:49;100162.03;;;14.37;77.95
11223;BME280;5668;52.012;8.724;2022-11-02T03:28:26;100160.66;;;14.32;78.03
11223;BME280;5668;52.012;8.724;2022-11-02T03:31:04;100160.66;;;14.32;78.22
11223;BME280;5668;52.012;8.724;2022-11-02T03:33:37;100161.38;;;14.34;78.29
11223;BME280;5668;52.012;8.724;2022-11-02T03:36:09;100163.97;;;14.34;77.74
11223;BME280;5668;52.012;8.724;2022-11-02T03:38:43;100171.13;;;14.32;77.83
11223;BME280;5668;52.012;8.724;2022-11-02T03:41:12;100172.78;;;14.33;77.54
11223;BME280;5668;52.012;8.724;2022-11-02T03:43:41;100171.13;;;14.32;77.60
11223;BME280;5668;52.012;8.724;2022-11-02T03:46:11;100172.50;;;14.37;77.50
11223;BME280;5668;52.012;8.724;2022-11-02T03:48:43;100171.13;;;14.32;77.46
11223;BME280;5668;52.012;8.724;2022-11-02T03:51:14;100171.00;;;14.34;77.84
11223;BME280;5668;52.012;8.724;2022-11-02T03:53:46;100182.94;;;14.37;77.21
11223;BME280;5668;52.012;8.724;2022-11-02T03:56:22;100171.13;;;14.32;76.98
11223;BME280;5668;52.012;8.724;2022-11-02T03:58:51;100164.81;;;14.35;76.99
11223;BME280;5668;52.012;8.724;2022-11-02T04:01:20;100180.25;;;14.38;76.82
11223;BME280;5668;52.012;8.724;2022-11-02T04:03:48;100187.13;;;14.39;77.09
11223;BME280;5668;52.012;8.724;2022-11-02T04:06:15;100194.00;;;14.40;76.66
11223;BME280;5668;52.012;8.724;2022-11-02T04:08:44;100189.84;;;14.38;77.23
11223;BME280;5668;52.012;8.724;2022-11-02T04:11:13;100198.63;;;14.37;76.83
11223;BME280;5668;52.012;8.724;2022-11-02T04:13:58;100197.53;;;14.29;76.69
11223;BME280;5668;52.012;8.724;2022-11-02T04:16:44;100195.47;;;14.33;76.66
11223;BME280;5668;52.012;8.724;2022-11-02T04:19:11;100207.72;;;14.32;76.74
11223;BME280;5668;52.012;8.724;2022-11-02T04:21:53;100203.44;;;14.31;77.01
11223;BME280;5668;52.012;8.724;2022-11-02T04:24:38;100207.97;;;14.29;76.92
11223;BME280;5668;52.012;8.724;2022-11-02T04:27:23;100210.44;;;14.21;77.79
11223;BME280;5668;52.012;8.724;2022-11-02T04:29:50;100216.34;;;14.23;77.46
11223;BME280;5668;52.012;8.724;2022-11-02T04:32:18;100221.59;;;14.23;77.28
11223;BME280;5668;52.012;8.724;2022-11-02T04:34:59;100215.97;;;14.28;76.95
11223;BME280;5668;52.012;8.724;2022-11-02T04:37:26;100215.53;;;14.23;77.46
11223;BME280;5668;52.012;8.724;2022-11-02T04:40:12;100218.03;;;14.24;77.22
11223;BME280;5668;52.012;8.724;2022-11-02T04:42:40;100217.31;;;14.22;77.11
11223;BME280;5668;52.012;8.724;2022-11-02T04:45:11;100208.50;;;14.23;77.40
11223;BME280;5668;52.012;8.724;2022-11-02T04:47:40;100216.94;;;14.27;77.45
11223;BME280;5668;52.012;8.724;2022-11-02T04:50:08;100217.06;;;14.25;77.09
11223;BME280;5668;52.012;8.724;2022-11-02T04:52:37;100210.19;;;14.24;77.28
11223;BME280;5668;52.012;8.724;2022-11-02T04:55:05;100208.94;;;14.28;76.84
11223;BME280;5668;52.012;8.724;2022-11-02T04:57:33;100214.56;;;14.24;76.99
11223;BME280;5668;52.012;8.724;2022-11-02T05:00:00;100218.97;;;14.23;77.22
11223;BME280;5668;52.012;8.724;2022-11-02T05:02:27;100218.97;;;14.23;76.84
11223;BME280;5668;52.012;8.724;2022-11-02T05:04:55;100215.16;;;14.27;76.95
11223;BME280;5668;52.012;8.724;2022-11-02T05:07:22;100219.25;;;14.30;76.86
11223;BME280;5668;52.012;8.724;2022-11-02T05:09:50;100220.38;;;14.27;76.77
11223;BME280;5668;52.012;8.724;2022-11-02T05:12:17;100227.38;;;14.27;76.93
11223;BME280;5668;52.012;8.724;2022-11-02T05:14:44;100222.28;;;14.25;77.23
11223;BME280;5668;52.012;8.724;2022-11-02T05:17:11;100216.78;;;14.28;76.87
11223;BME280;5668;52.012;8.724;2022-11-02T05:19:39;100220.63;;;14.24;76.96
11223;BME280;5668;52.012;8.724;2022-11-02T05:22:08;100228.34;;;14.26;76.99
11223;BME280;5668;52.012;8.724;2022-11-02T05:24:35;100218.97;;;14.23;77.27
11223;BME280;5668;52.012;8.724;2022-11-02T05:27:02;100218.03;;;14.24;77.67
11223;BME280;5668;52.012;8.724;2022-11-02T05:29:29;100218.03;;;14.24;77.52
11223;BME280;5668;52.012;8.724;2022-11-02T05:31:56;100218.97;;;14.23;77.71
11223;BME280;5668;52.012;8.724;2022-11-02T05:34:24;100221.75;;;14.31;76.90
11223;BME280;5668;52.012;8.724;2022-11-02T05:36:51;100224.50;;;14.30;77.15
11223;BME280;5668;52.012;8.724;2022-11-02T05:39:19;100227.09;;;14.30;76.87
11223;BME280;5668;52.012;8.724;2022-11-02T05:41:46;100225.91;;;14.34;76.12
11223;BME280;5668;52.012;8.724;2022-11-02T05:44:14;100228.38;;;14.36;76.46
11223;BME280;5668;52.012;8.724;2022-11-02T05:46:42;100223.81;;;14.38;76.45
11223;BME280;5668;52.012;8.724;2022-11-02T05:49:09;100221.75;;;14.31;76.39
11223;BME280;5668;52.012;8.724;2022-11-02T05:51:36;100227.22;;;14.28;76.71
11223;BME280;5668;52.012;8.724;2022-11-02T05:54:04;100225.91;;;14.34;76.00
11223;BME280;5668;52.012;8.724;2022-11-02T05:56:32;100236.91;;;14.28;76.72
11223;BME280;5668;52.012;8.724;2022-11-02T05:59:00;100234.41;;;14.26;76.49
11223;BME280;5668;52.012;8.724;2022-11-02T06:01:27;100239.34;;;14.29;76.94
11223;BME280;5668;52.012;8.724;2022-11-02T06:03:55;100244.56;;;14.29;76.39
11223;BME280;5668;52.012;8.724;2022-11-02T06:06:22;100240.84;;;14.22;76.41
11223;BME280;5668;52.012;8.724;2022-11-02T06:08:49;100252.00;;;14.24;76.71
11223;BME280;5668;52.012;8.724;2022-11-02T06:11:16;100251.75;;;14.27;77.04
11223;BME280;5668;52.012;8.724;2022-11-02T06:13:48;100255.31;;;14.26;77.01
11223;BME280;5668;52.012;8.724;2022-11-02T06:16:17;100253.66;;;14.25;76.69
11223;BME280;5668;52.012;8.724;2022-11-02T06:18:44;100252.94;;;14.23;77.10
11223;BME280;5668;52.012;8.724;2022-11-02T06:21:11;100250.91;;;14.27;77.03
11223;BME280;5668;52.012;8.724;2022-11-02T06:23:39;100257.34;;;14.23;77.11
11223;BME280;5668;52.012;8.724;2022-11-02T06:26:09;100251.41;;;14.21;76.80
11223;BME280;5668;52.012;8.724;2022-11-02T06:28:37;100262.97;;;14.18;77.29
11223;BME280;5668;52.012;8.724;2022-11-02T06:31:06;100265.19;;;14.13;76.96
11223;BME280;5668;52.012;8.724;2022-11-02T06:33:33;100272.03;;;14.14;77.73
11223;BME280;5668;52.012;8.724;2022-11-02T06:36:00;100272.03;;;14.14;77.34
11223;BME280;5668;52.012;8.724;2022-11-02T06:38:27;100272.63;;;14.18;77.04
11223;BME280;5668;52.012;8.724;2022-11-02T06:40:55;100279.63;;;14.17;76.98
11223;BME280;5668;52.012;8.724;2022-11-02T06:43:23;100287.88;;;14.22;76.78
11223;BME280;5668;52.012;8.724;2022-11-02T06:45:53;100289.56;;;14.23;76.75
11223;BME280;5668;52.012;8.724;2022-11-02T06:48:22;100293.56;;;14.27;76.94
11223;BME280;5668;52.012;8.724;2022-11-02T06:50:50;100293.41;;;14.29;76.27
11223;BME280;5668;52.012;8.724;2022-11-02T06:53:17;100295.06;;;14.30;76.41
11223;BME280;5668;52.012;8.724;2022-11-02T06:55:44;100307.31;;;14.29;76.08
11223;BME280;5668;52.012;8.724;2022-11-02T06:58:16;100314.22;;;14.30;76.27
11223;BME280;5668;52.012;8.724;2022-11-02T07:00:43;100320.53;;;14.28;76.03
11223;BME280;5668;52.012;8.724;2022-11-02T07:03:11;100326.56;;;14.28;76.46
11223;BME280;5668;52.012;8.724;2022-11-02T07:05:39;100326.72;;;14.27;75.85
11223;BME280;5668;52.012;8.724;2022-11-02T07:08:06;100331.00;;;14.28;76.25
11223;BME280;5668;52.012;8.724;2022-11-02T07:10:34;100332.38;;;14.32;76.41
11223;BME280;5668;52.012;8.724;2022-11-02T07:13:01;100341.31;;;14.29;75.96
11223;BME280;5668;52.012;8.724;2022-11-02T07:15:28;100341.19;;;14.31;76.55
11223;BME280;5668;52.012;8.724;2022-11-02T07:17:56;100343.09;;;14.29;76.73
11223;BME280;5668;52.012;8.724;2022-11-02T07:20:23;100346.81;;;14.26;76.71
11223;BME280;5668;52.012;8.724;2022-11-02T07:22:55;100353.53;;;14.29;76.46
11223;BME280;5668;52.012;8.724;2022-11-02T07:25:24;100358.94;;;14.27;76.98
11223;BME280;5668;52.012;8.724;2022-11-02T07:27:53;100358.94;;;14.27;76.90
11223;BME280;5668;52.012;8.724;2022-11-02T07:30:20;100354.38;;;14.29;76.84
11223;BME280;5668;52.012;8.724;2022-11-02T07:32:47;100366.25;;;14.33;76.79
11223;BME280;5668;52.012;8.724;2022-11-02T07:35:15;100363.34;;;14.37;76.49
11223;BME280;5668;52.012;8.724;2022-11-02T07:37:43;100373.72;;;14.38;76.70
11223;BME280;5668;52.012;8.724;2022-11-02T07:40:13;100375.25;;;14.41;76.82
11223;BME280;5668;52.012;8.724;2022-11-02T07:42:44;100376.78;;;14.43;76.56
11223;BME280;5668;52.012;8.724;2022-11-02T07:45:12;100385.19;;;14.47;76.29
11223;BME280;5668;52.012;8.724;2022-11-02T07:47:43;100375.44;;;14.49;75.97
11223;BME280;5668;52.012;8.724;2022-11-02T07:50:12;100391.13;;;14.49;76.28
11223;BME280;5668;52.012;8.724;2022-11-02T07:52:44;100387.56;;;14.50;76.29
11223;BME280;5668;52.012;8.724;2022-11-02T07:55:14;100387.56;;;14.50;76.48
11223;BME280;5668;52.012;8.724;2022-11-02T07:57:41;100392.63;;;14.51;76.00
11223;BME280;5668;52.012;8.724;2022-11-02T08:00:10;100398.69;;;14.52;75.72
11223;BME280;5668;52.012;8.724;2022-11-02T08:02:37;100406.16;;;14.56;75.93
11223;BME280;5668;52.012;8.724;2022-11-02T08:05:05;100404.94;;;14.60;75.48
11223;BME280;5668;52.012;8.724;2022-11-02T08:07:32;100407.31;;;14.63;75.93
11223;BME280;5668;52.012;8.724;2022-11-02T08:09:59;100405.41;;;14.65;75.31
11223;BME280;5668;52.012;8.724;2022-11-02T08:12:28;100412.41;;;14.65;75.09
11223;BME280;5668;52.012;8.724;2022-11-02T08:14:55;100416.66;;;14.66;75.12
11223;BME280;5668;52.012;8.724;2022-11-02T08:17:23;100422.59;;;14.68;74.82
11223;BME280;5668;52.012;8.724;2022-11-02T08:19:50;100429.91;;;14.74;74.64
11223;BME280;5668;52.012;8.724;2022-11-02T08:22:17;100430.63;;;14.76;74.51
11223;BME280;5668;52.012;8.724;2022-11-02T08:24:44;100425.25;;;14.78;73.73
11223;BME280;5668;52.012;8.724;2022-11-02T08:27:11;100423.72;;;14.75;73.59
11223;BME280;5668;52.012;8.724;2022-11-02T08:29:40;100430.63;;;14.76;73.04
11223;BME280;5668;52.012;8.724;2022-11-02T08:32:07;100431.69;;;14.73;71.56
11223;BME280;5668;52.012;8.724;2022-11-02T08:34:34;100429.38;;;14.70;71.12
11223;BME280;5668;52.012;8.724;2022-11-02T08:37:01;100438.03;;;14.71;70.86
11223;BME280;5668;52.012;8.724;2022-11-02T08:39:28;100439.44;;;14.75;70.78
11223;BME280;5668;52.012;8.724;2022-11-02T08:41:55;100439.44;;;14.75;70.09
11223;BME280;5668;52.012;8.724;2022-11-02T08:44:22;100450.84;;;14.74;69.83
11223;BME280;5668;52.012;8.724;2022-11-02T08:46:51;100455.41;;;14.72;69.27
11223;BME280;5668;52.012;8.724;2022-11-02T08:49:18;100461.47;;;14.73;69.34
11223;BME280;5668;52.012;8.724;2022-11-02T08:51:46;100462.28;;;14.73;69.57
11223;BME280;5668;52.012;8.724;2022-11-02T08:54:14;100468.31;;;14.73;69.25
11223;BME280;5668;52.012;8.724;2022-11-02T08:56:41;100472.47;;;14.76;70.17
11223;BME280;5668;52.012;8.724;2022-11-02T08:59:08;100473.19;;;14.78;69.42
11223;BME280;5668;52.012;8.724;2022-11-02T09:01:35;100486.00;;;14.81;68.86
11223;BME280;5668;52.012;8.724;2022-11-02T09:04:05;100472.78;;;14.83;68.82
11223;BME280;5668;52.012;8.724;2022-11-02T09:06:32;100473.38;;;14.86;69.27
11223;BME280;5668;52.012;8.724;2022-11-02T09:08:59;100487.28;;;15.17;67.40
11223;BME280;5668;52.012;8.724;2022-11-02T09:11:26;100485.16;;;15.01;67.60
11223;BME280;5668;52.012;8.724;2022-11-02T09:14:07;100482.53;;;15.01;67.87
11223;BME280;5668;52.012;8.724;2022-11-02T09:16:34;100489.69;;;14.99;67.73
11223;BME280;5668;52.012;8.724;2022-11-02T09:19:01;100493.00;;;15.01;67.66
11223;BME280;5668;52.012;8.724;2022-11-02T09:21:29;100485.84;;;15.03;67.55
11223;BME280;5668;52.012;8.724;2022-11-02T09:23:56;100494.25;;;15.07;67.76
11223;BME280;5668;52.012;8.724;2022-11-02T09:26:23;100503.78;;;15.08;67.44
11223;BME280;5668;52.012;8.724;2022-11-02T09:28:51;100509.56;;;15.11;67.23
11223;BME280;5668;52.012;8.724;2022-11-02T09:31:18;100508.47;;;15.14;67.37
11223;BME280;5668;52.012;8.724;2022-11-02T09:33:45;100518.53;;;15.19;66.77
11223;BME280;5668;52.012;8.724;2022-11-02T09:36:12;100522.81;;;15.20;66.33
11223;BME280;5668;52.012;8.724;2022-11-02T09:38:40;100519.84;;;15.24;66.56
11223;BME280;5668;52.012;8.724;2022-11-02T09:41:13;100533.34;;;15.29;65.92
11223;BME280;5668;52.012;8.724;2022-11-02T09:43:51;100532.94;;;15.34;66.53
11223;BME280;5668;52.012;8.724;2022-11-02T09:46:22;100541.50;;;15.36;66.49
11223;BME280;5668;52.012;8.724;2022-11-02T09:48:53;100536.13;;;15.37;66.42
11223;BME280;5668;52.012;8.724;2022-11-02T09:51:25;100536.97;;;15.38;65.06
11223;BME280;5668;52.012;8.724;2022-11-02T09:54:02;100540.78;;;15.34;64.61
11223;BME280;5668;52.012;8.724;2022-11-02T09:56:32;100543.28;;;15.35;64.29
11223;BME280;5668;52.012;8.724;2022-11-02T09:59:01;100542.34;;;15.36;64.43
11223;BME280;5668;52.012;8.724;2022-11-02T10:01:39;100557.91;;;15.38;64.01
11223;BME280;5668;52.012;8.724;2022-11-02T10:04:29;100559.59;;;15.39;62.92
11223;BME280;5668;52.012;8.724;2022-11-02T10:07:04;100562.44;;;15.36;63.13
11223;BME280;5668;52.012;8.724;2022-11-02T10:09:40;100559.41;;;15.31;62.46
11223;BME280;5668;52.012;8.724;2022-11-02T10:12:13;100569.16;;;15.29;62.75
11223;BME280;5668;52.012;8.724;2022-11-02T10:14:49;100579.94;;;15.35;63.17
11223;BME280;5668;52.012;8.724;2022-11-02T10:17:22;100579.94;;;15.35;62.98
11223;BME280;5668;52.012;8.724;2022-11-02T10:19:54;100588.75;;;15.34;63.49
11223;BME280;5668;52.012;8.724;2022-11-02T10:22:24;100587.56;;;15.38;63.56
11223;BME280;5668;52.012;8.724;2022-11-02T10:24:56;100580.25;;;15.42;63.39
11223;BME280;5668;52.012;8.724;2022-11-02T10:27:26;100583.16;;;15.39;63.66
11223;BME280;5668;52.012;8.724;2022-11-02T10:29:56;100590.88;;;15.40;63.58
11223;BME280;5668;52.012;8.724;2022-11-02T10:32:27;100587.16;;;15.43;63.95
11223;BME280;5668;52.012;8.724;2022-11-02T10:34:57;100604.53;;;15.44;63.68
11223;BME280;5668;52.012;8.724;2022-11-02T10:37:35;100599.16;;;15.45;63.65
11223;BME280;5668;52.012;8.724;2022-11-02T10:40:15;100600.97;;;15.45;63.62
11223;BME280;5668;52.012;8.724;2022-11-02T10:42:57;100614.19;;;15.43;63.94
11223;BME280;5668;52.012;8.724;2022-11-02T10:45:47;100613.63;;;15.40;62.95
11223;BME280;5668;52.012;8.724;2022-11-02T10:48:28;100609.34;;;15.39;63.11
11223;BME280;5668;52.012;8.724;2022-11-02T10:51:07;100611.69;;;15.42;63.45
11223;BME280;5668;52.012;8.724;2022-11-02T10:53:35;100605.38;;;15.44;63.43
11223;BME280;5668;52.012;8.724;2022-11-02T10:56:12;100608.69;;;15.46;63.22
11223;BME280;5668;52.012;8.724;2022-11-02T10:58:44;100599.59;;;15.50;63.50
11223;BME280;5668;52.012;8.724;2022-11-02T11:01:14;100600.22;;;15.54;63.47
11223;BME280;5668;52.012;8.724;2022-11-02T11:04:00;100605.75;;;15.61;62.99
11223;BME280;5668;52.012;8.724;2022-11-02T11:06:29;100602.84;;;15.64;62.93
11223;BME280;5668;52.012;8.724;2022-11-02T11:09:00;100594.19;;;15.63;61.49
11223;BME280;5668;52.012;8.724;2022-11-02T11:11:31;100601.75;;;15.66;61.08
11223;BME280;5668;52.012;8.724;2022-11-02T11:14:02;100616.41;;;15.69;61.58
11223;BME280;5668;52.012;8.724;2022-11-02T11:16:35;100614.06;;;15.75;61.87
11223;BME280;5668;52.012;8.724;2022-11-02T11:19:06;100618.78;;;15.81;61.55
11223;BME280;5668;52.012;8.724;2022-11-02T11:21:38;100624.59;;;15.85;61.82
11223;BME280;5668;52.012;8.724;2022-11-02T11:24:21;100617.28;;;15.88;61.66
11223;BME280;5668;52.012;8.724;2022-11-02T11:27:01;100617.97;;;15.91;60.94
11223;BME280;5668;52.012;8.724;2022-11-02T11:29:31;100628.47;;;15.91;60.17
11223;BME280;5668;52.012;8.724;2022-11-02T11:31:58;100631.78;;;15.93;60.02
11223;BME280;5668;52.012;8.724;2022-11-02T11:34:28;100636.22;;;15.92;60.17
11223;BME280;5668;52.012;8.724;2022-11-02T11:37:05;100633.16;;;15.97;59.48
11223;BME280;5668;52.012;8.724;2022-11-02T11:39:33;100642.94;;;15.95;59.63
11223;BME280;5668;52.012;8.724;2022-11-02T11:42:04;100645.31;;;15.98;59.52
11223;BME280;5668;52.012;8.724;2022-11-02T11:44:44;100642.69;;;15.98;59.49
11223;BME280;5668;52.012;8.724;2022-11-02T11:47:12;100640.06;;;15.98;59.65
11223;BME280;5668;52.012;8.724;2022-11-02T11:49:46;100636.50;;;15.99;59.23
11223;BME280;5668;52.012;8.724;2022-11-02T11:52:19;100638.41;;;15.97;59.20
11223;BME280;5668;52.012;8.724;2022-11-02T11:54:55;100648.19;;;15.95;59.34
11223;BME280;5668;52.012;8.724;2022-11-02T11:57:29;100643.94;;;15.94;59.92
11223;BME280;5668;52.012;8.724;2022-11-02T11:59:57;100643.38;;;15.90;59.27
11223;BME280;5668;52.012;8.724;2022-11-02T12:02:28;100638.13;;;15.90;59.07
11223;BME280;5668;52.012;8.724;2022-11-02T12:05:01;100643.50;;;15.88;58.80
11223;BME280;5668;52.012;8.724;2022-11-02T12:07:57;100639.06;;;15.89;58.85
11223;BME280;5668;52.012;8.724;2022-11-02T12:10:39;100634.66;;;15.90;57.68
11223;BME280;5668;52.012;8.724;2022-11-02T12:13:19;100645.56;;;15.95;57.68
11223;BME280;5668;52.012;8.724;2022-11-02T12:16:04;100629.84;;;15.95;57.14
11223;BME280;5668;52.012;8.724;2022-11-02T12:19:00;100641.03;;;15.97;57.44
11223;BME280;5668;52.012;8.724;2022-11-02T12:21:37;100633.28;;;15.95;57.43
11223;BME280;5668;52.012;8.724;2022-11-02T12:24:30;100636.50;;;15.99;57.62
11223;BME280;5668;52.012;8.724;2022-11-02T12:27:09;100635.41;;;16.01;57.31
11223;BME280;5668;52.012;8.724;2022-11-02T12:29:55;100628.22;;;16.03;57.46
11223;BME280;5668;52.012;8.724;2022-11-02T12:35:32;100624.78;;;16.12;56.57
11223;BME280;5668;52.012;8.724;2022-11-02T12:38:12;100629.91;;;16.14;56.46
11223;BME280;5668;52.012;8.724;2022-11-02T12:40:52;100625.63;;;16.13;56.20
11223;BME280;5668;52.012;8.724;2022-11-02T12:43:33;100637.66;;;16.15;56.09
11223;BME280;5668;52.012;8.724;2022-11-02T12:46:12;100633.22;;;16.16;56.15
11223;BME280;5668;52.012;8.724;2022-11-02T12:48:52;100631.28;;;16.18;55.84
11223;BME280;5668;52.012;8.724;2022-11-02T12:51:26;100634.34;;;16.23;55.39
11223;BME280;5668;52.012;8.724;2022-11-02T12:53:57;100634.34;;;16.23;55.08
11223;BME280;5668;52.012;8.724;2022-11-02T12:56:31;100637.66;;;16.25;55.09
11223;BME280;5668;52.012;8.724;2022-11-02T12:59:00;100639.31;;;16.26;54.56
11223;BME280;5668;52.012;8.724;2022-11-02T13:01:34;100635.72;;;16.27;54.86
11223;BME280;5668;52.012;8.724;2022-11-02T13:04:08;100636.56;;;16.37;54.04
11223;BME280;5668;52.012;8.724;2022-11-02T13:06:42;100635.47;;;16.30;53.99
11223;BME280;5668;52.012;8.724;2022-11-02T13:09:12;100639.31;;;16.26;53.33
11223;BME280;5668;52.012;8.724;2022-11-02T13:11:43;100637.94;;;16.22;53.38
11223;BME280;5668;52.012;8.724;2022-11-02T13:14:14;100631.56;;;16.24;53.10
11223;BME280;5668;52.012;8.724;2022-11-02T13:16:48;100634.59;;;16.20;53.52
11223;BME280;5668;52.012;8.724;2022-11-02T13:19:19;100631.03;;;16.21;52.88
11223;BME280;5668;52.012;8.724;2022-11-02T13:21:50;100625.78;;;16.21;53.03
11223;BME280;5668;52.012;8.724;2022-11-02T13:24:22;100626.47;;;16.23;53.52